sensor_id;sensor_type;location;lat;lon;timestamp;temperature;humidity
27940;DHT22;15275;51.716;14.324;2023-08-20T00:01:24;27.70;84.90
27940;DHT22;15275;51.716;14.324;2023-08-20T00:03:51;27.70;84.90
27940;DHT22;15275;51.716;14.324;2023-08-20T00:06:18;27.70;84.80
27940;DHT22;15275;51.716;14.324;2023-08-20T00:08:44;27.60;84.80
27940;DHT22;15275;51.716;14.324;2023-08-20T00:11:11;27.60;84.80
27940;DHT22;15275;51.716;14.324;2023-08-20T00:13:38;27.60;84.90
27940;DHT22;15275;51.716;14.324;2023-08-20T00:16:04;27.60;84.80
27940;DHT22;15275;51.716;14.324;2023-08-20T00:18:30;27.50;84.80
27940;DHT22;15275;51.716;14.324;2023-08-20T00:20:56;27.50;84.90
27940;DHT22;15275;51.716;14.324;2023-08-20T00:23:21;27.40;84.90
27940;DHT22;15275;51.716;14.324;2023-08-20T00:25:47;27.40;84.90
27940;DHT22;15275;51.716;14.324;2023-08-20T00:28:14;27.40;84.80
27940;DHT22;15275;51.716;14.324;2023-08-20T00:30:39;27.40;84.80
27940;DHT22;15275;51.716;14.324;2023-08-20T00:33:05;27.30;84.80
27940;DHT22;15275;51.716;14.324;2023-08-20T00:35:31;27.30;84.80
27940;DHT22;15275;51.716;14.324;2023-08-20T00:37:57;27.30;84.90
27940;DHT22;15275;51.716;14.324;2023-08-20T00:40:23;27.30;85.00
27940;DHT22;15275;51.716;14.324;2023-08-20T00:42:49;27.30;85.00
27940;DHT22;15275;51.716;14.324;2023-08-20T00:45:15;27.30;85.10
27940;DHT22;15275;51.716;14.324;2023-08-20T00:47:42;27.30;85.00
27940;DHT22;15275;51.716;14.324;2023-08-20T00:50:08;27.40;85.00
27940;DHT22;15275;51.716;14.324;2023-08-20T00:52:34;27.30;85.00
27940;DHT22;15275;51.716;14.324;2023-08-20T00:55:03;27.40;85.00
27940;DHT22;15275;51.716;14.324;2023-08-20T00:57:33;27.40;85.00
27940;DHT22;15275;51.716;14.324;2023-08-20T00:59:59;27.40;85.00
27940;DHT22;15275;51.716;14.324;2023-08-20T01:02:25;27.40;85.00
27940;DHT22;15275;51.716;14.324;2023-08-20T01:04:51;27.40;85.00
27940;DHT22;15275;51.716;14.324;2023-08-20T01:07:26;27.40;85.00
27940;DHT22;15275;51.716;14.324;2023-08-20T01:09:58;27.40;85.00
27940;DHT22;15275;51.716;14.324;2023-08-20T01:12:31;27.40;85.00
27940;DHT22;15275;51.716;14.324;2023-08-20T01:14:57;27.40;85.00
27940;DHT22;15275;51.716;14.324;2023-08-20T01:17:23;27.50;85.00
27940;DHT22;15275;51.716;14.324;2023-08-20T01:19:49;27.50;85.00
27940;DHT22;15275;51.716;14.324;2023-08-20T01:30:27;27.50;85.20
27940;DHT22;15275;51.716;14.324;2023-08-20T01:32:53;27.60;84.70
27940;DHT22;15275;51.716;14.324;2023-08-20T01:35:19;27.50;84.60
27940;DHT22;15275;51.716;14.324;2023-08-20T01:37:45;27.60;84.80
27940;DHT22;15275;51.716;14.324;2023-08-20T01:40:11;27.60;85.00
27940;DHT22;15275;51.716;14.324;2023-08-20T01:42:37;27.60;85.00
27940;DHT22;15275;51.716;14.324;2023-08-20T01:45:04;27.60;85.00
27940;DHT22;15275;51.716;14.324;2023-08-20T01:47:31;27.70;85.00
27940;DHT22;15275;51.716;14.324;2023-08-20T01:49:57;27.70;85.00
27940;DHT22;15275;51.716;14.324;2023-08-20T01:52:24;27.70;85.00
27940;DHT22;15275;51.716;14.324;2023-08-20T01:54:50;27.70;85.00
27940;DHT22;15275;51.716;14.324;2023-08-20T01:57:16;27.70;85.00
27940;DHT22;15275;51.716;14.324;2023-08-20T01:59:42;27.80;85.00
27940;DHT22;15275;51.716;14.324;2023-08-20T02:02:08;27.80;85.00
27940;DHT22;15275;51.716;14.324;2023-08-20T02:04:34;27.80;85.00
27940;DHT22;15275;51.716;14.324;2023-08-20T02:06:59;27.80;84.90
27940;DHT22;15275;51.716;14.324;2023-08-20T02:09:25;27.80;84.90
27940;DHT22;15275;51.716;14.324;2023-08-20T02:11:51;27.80;84.80
27940;DHT22;15275;51.716;14.324;2023-08-20T02:14:17;27.80;84.80
27940;DHT22;15275;51.716;14.324;2023-08-20T02:16:43;27.80;84.80
27940;DHT22;15275;51.716;14.324;2023-08-20T02:19:09;27.80;84.80
27940;DHT22;15275;51.716;14.324;2023-08-20T02:21:35;27.80;84.80
27940;DHT22;15275;51.716;14.324;2023-08-20T02:24:02;27.90;84.80
27940;DHT22;15275;51.716;14.324;2023-08-20T02:26:28;27.90;84.80
27940;DHT22;15275;51.716;14.324;2023-08-20T02:28:53;27.90;84.70
27940;DHT22;15275;51.716;14.324;2023-08-20T02:31:19;27.90;84.70
27940;DHT22;15275;51.716;14.324;2023-08-20T02:33:45;27.90;84.70
27940;DHT22;15275;51.716;14.324;2023-08-20T02:36:10;27.80;84.70
27940;DHT22;15275;51.716;14.324;2023-08-20T02:38:36;27.90;84.70
27940;DHT22;15275;51.716;14.324;2023-08-20T02:41:02;27.90;84.70
27940;DHT22;15275;51.716;14.324;2023-08-20T02:43:30;27.80;84.60
27940;DHT22;15275;51.716;14.324;2023-08-20T02:45:56;27.80;84.70
27940;DHT22;15275;51.716;14.324;2023-08-20T02:48:22;27.80;84.70
27940;DHT22;15275;51.716;14.324;2023-08-20T02:50:53;27.80;84.70
27940;DHT22;15275;51.716;14.324;2023-08-20T02:53:20;27.80;84.50
27940;DHT22;15275;51.716;14.324;2023-08-20T02:55:46;27.80;84.30
27940;DHT22;15275;51.716;14.324;2023-08-20T02:58:11;27.80;83.30
27940;DHT22;15275;51.716;14.324;2023-08-20T03:00:37;27.80;83.90
27940;DHT22;15275;51.716;14.324;2023-08-20T03:03:03;27.80;83.90
27940;DHT22;15275;51.716;14.324;2023-08-20T03:05:33;27.70;84.10
27940;DHT22;15275;51.716;14.324;2023-08-20T03:07:59;27.80;83.90
27940;DHT22;15275;51.716;14.324;2023-08-20T03:10:25;27.70;84.30
27940;DHT22;15275;51.716;14.324;2023-08-20T03:12:52;27.80;84.00
27940;DHT22;15275;51.716;14.324;2023-08-20T03:15:17;27.80;83.80
27940;DHT22;15275;51.716;14.324;2023-08-20T03:17:43;27.70;84.00
27940;DHT22;15275;51.716;14.324;2023-08-20T03:20:09;27.70;84.10
27940;DHT22;15275;51.716;14.324;2023-08-20T03:22:35;27.70;84.20
27940;DHT22;15275;51.716;14.324;2023-08-20T03:25:02;27.70;83.30
27940;DHT22;15275;51.716;14.324;2023-08-20T03:27:28;27.70;83.90
27940;DHT22;15275;51.716;14.324;2023-08-20T03:29:54;27.70;84.10
27940;DHT22;15275;51.716;14.324;2023-08-20T03:32:20;27.70;84.40
27940;DHT22;15275;51.716;14.324;2023-08-20T03:34:45;27.60;84.00
27940;DHT22;15275;51.716;14.324;2023-08-20T03:37:11;27.60;84.60
27940;DHT22;15275;51.716;14.324;2023-08-20T03:39:37;27.60;84.60
27940;DHT22;15275;51.716;14.324;2023-08-20T03:42:03;27.60;84.40
27940;DHT22;15275;51.716;14.324;2023-08-20T03:44:28;27.50;84.50
27940;DHT22;15275;51.716;14.324;2023-08-20T03:46:56;27.50;84.40
27940;DHT22;15275;51.716;14.324;2023-08-20T03:49:22;27.50;84.00
27940;DHT22;15275;51.716;14.324;2023-08-20T03:51:47;27.50;84.30
27940;DHT22;15275;51.716;14.324;2023-08-20T03:54:13;27.40;84.50
27940;DHT22;15275;51.716;14.324;2023-08-20T03:56:39;27.40;84.60
27940;DHT22;15275;51.716;14.324;2023-08-20T03:59:05;27.40;84.80
27940;DHT22;15275;51.716;14.324;2023-08-20T04:01:30;27.40;85.00
27940;DHT22;15275;51.716;14.324;2023-08-20T04:03:56;27.40;85.00
27940;DHT22;15275;51.716;14.324;2023-08-20T04:06:22;27.40;85.00
27940;DHT22;15275;51.716;14.324;2023-08-20T04:08:48;27.40;84.60
27940;DHT22;15275;51.716;14.324;2023-08-20T04:11:14;27.40;84.80
27940;DHT22;15275;51.716;14.324;2023-08-20T04:13:39;27.40;85.00
27940;DHT22;15275;51.716;14.324;2023-08-20T04:16:08;27.40;84.70
27940;DHT22;15275;51.716;14.324;2023-08-20T04:18:34;27.40;84.90
27940;DHT22;15275;51.716;14.324;2023-08-20T04:20:59;27.30;84.90
27940;DHT22;15275;51.716;14.324;2023-08-20T04:23:25;27.30;84.00
27940;DHT22;15275;51.716;14.324;2023-08-20T04:25:51;27.30;84.40
27940;DHT22;15275;51.716;14.324;2023-08-20T04:28:17;27.30;84.80
27940;DHT22;15275;51.716;14.324;2023-08-20T04:30:43;27.30;83.90
27940;DHT22;15275;51.716;14.324;2023-08-20T04:33:11;27.20;84.50
27940;DHT22;15275;51.716;14.324;2023-08-20T04:35:37;27.20;84.40
27940;DHT22;15275;51.716;14.324;2023-08-20T04:38:03;27.20;84.90
27940;DHT22;15275;51.716;14.324;2023-08-20T04:40:28;27.20;85.10
27940;DHT22;15275;51.716;14.324;2023-08-20T04:42:54;27.20;85.10
27940;DHT22;15275;51.716;14.324;2023-08-20T04:45:20;27.20;85.00
27940;DHT22;15275;51.716;14.324;2023-08-20T04:47:46;27.20;85.30
27940;DHT22;15275;51.716;14.324;2023-08-20T04:50:12;27.20;85.50
27940;DHT22;15275;51.716;14.324;2023-08-20T04:52:39;27.20;85.80
27940;DHT22;15275;51.716;14.324;2023-08-20T04:55:05;27.20;85.80
27940;DHT22;15275;51.716;14.324;2023-08-20T04:57:31;27.20;86.00
27940;DHT22;15275;51.716;14.324;2023-08-20T04:59:57;27.30;86.00
27940;DHT22;15275;51.716;14.324;2023-08-20T05:02:23;27.30;85.80
27940;DHT22;15275;51.716;14.324;2023-08-20T05:04:49;27.30;86.10
27940;DHT22;15275;51.716;14.324;2023-08-20T05:07:15;27.40;86.00
27940;DHT22;15275;51.716;14.324;2023-08-20T05:09:40;27.40;86.30
27940;DHT22;15275;51.716;14.324;2023-08-20T05:12:06;27.50;86.00
27940;DHT22;15275;51.716;14.324;2023-08-20T05:14:32;27.50;85.80
27940;DHT22;15275;51.716;14.324;2023-08-20T05:16:58;27.50;86.00
27940;DHT22;15275;51.716;14.324;2023-08-20T05:19:24;27.60;86.30
27940;DHT22;15275;51.716;14.324;2023-08-20T05:21:50;27.60;86.30
27940;DHT22;15275;51.716;14.324;2023-08-20T05:24:17;27.70;86.30
27940;DHT22;15275;51.716;14.324;2023-08-20T05:26:42;27.70;85.40
27940;DHT22;15275;51.716;14.324;2023-08-20T05:29:08;27.80;86.00
27940;DHT22;15275;51.716;14.324;2023-08-20T05:31:34;27.80;86.30
27940;DHT22;15275;51.716;14.324;2023-08-20T05:33:59;27.90;86.30
27940;DHT22;15275;51.716;14.324;2023-08-20T05:36:25;28.00;86.20
27940;DHT22;15275;51.716;14.324;2023-08-20T05:38:51;28.00;86.30
27940;DHT22;15275;51.716;14.324;2023-08-20T05:41:16;28.10;86.20
27940;DHT22;15275;51.716;14.324;2023-08-20T05:43:42;28.20;86.10
27940;DHT22;15275;51.716;14.324;2023-08-20T05:46:08;28.20;86.20
27940;DHT22;15275;51.716;14.324;2023-08-20T05:48:33;28.20;84.70
27940;DHT22;15275;51.716;14.324;2023-08-20T05:50:59;28.30;84.30
27940;DHT22;15275;51.716;14.324;2023-08-20T05:53:25;28.30;84.00
27940;DHT22;15275;51.716;14.324;2023-08-20T05:55:50;28.30;85.30
27940;DHT22;15275;51.716;14.324;2023-08-20T05:58:16;28.30;85.40
27940;DHT22;15275;51.716;14.324;2023-08-20T06:00:42;28.30;85.30
27940;DHT22;15275;51.716;14.324;2023-08-20T06:03:07;28.30;85.50
27940;DHT22;15275;51.716;14.324;2023-08-20T06:05:33;28.30;84.90
27940;DHT22;15275;51.716;14.324;2023-08-20T06:07:59;28.40;84.30
27940;DHT22;15275;51.716;14.324;2023-08-20T06:10:25;28.40;84.50
27940;DHT22;15275;51.716;14.324;2023-08-20T06:12:51;28.50;85.60
27940;DHT22;15275;51.716;14.324;2023-08-20T06:15:17;28.60;83.70
27940;DHT22;15275;51.716;14.324;2023-08-20T06:17:43;28.60;83.70
27940;DHT22;15275;51.716;14.324;2023-08-20T06:20:09;28.70;83.50
27940;DHT22;15275;51.716;14.324;2023-08-20T06:22:37;28.80;84.70
27940;DHT22;15275;51.716;14.324;2023-08-20T06:25:03;28.80;82.60
27940;DHT22;15275;51.716;14.324;2023-08-20T06:27:30;28.90;84.60
27940;DHT22;15275;51.716;14.324;2023-08-20T06:29:56;29.00;83.90
27940;DHT22;15275;51.716;14.324;2023-08-20T06:32:23;29.10;84.50
27940;DHT22;15275;51.716;14.324;2023-08-20T06:34:49;29.20;82.20
27940;DHT22;15275;51.716;14.324;2023-08-20T06:37:15;29.30;82.30
27940;DHT22;15275;51.716;14.324;2023-08-20T06:39:40;29.30;81.20
27940;DHT22;15275;51.716;14.324;2023-08-20T06:42:06;29.40;80.90
27940;DHT22;15275;51.716;14.324;2023-08-20T06:44:32;29.40;79.10
27940;DHT22;15275;51.716;14.324;2023-08-20T06:46:57;29.50;80.70
27940;DHT22;15275;51.716;14.324;2023-08-20T06:49:23;29.60;82.60
27940;DHT22;15275;51.716;14.324;2023-08-20T06:51:49;29.70;83.40
27940;DHT22;15275;51.716;14.324;2023-08-20T06:54:15;29.80;83.00
27940;DHT22;15275;51.716;14.324;2023-08-20T06:56:43;29.80;84.30
27940;DHT22;15275;51.716;14.324;2023-08-20T06:59:09;29.90;84.10
27940;DHT22;15275;51.716;14.324;2023-08-20T07:01:35;29.90;83.10
27940;DHT22;15275;51.716;14.324;2023-08-20T07:04:01;29.90;84.00
27940;DHT22;15275;51.716;14.324;2023-08-20T07:06:27;30.00;84.80
27940;DHT22;15275;51.716;14.324;2023-08-20T07:08:53;30.00;84.50
27940;DHT22;15275;51.716;14.324;2023-08-20T07:11:19;30.10;84.80
27940;DHT22;15275;51.716;14.324;2023-08-20T07:13:44;30.10;83.80
27940;DHT22;15275;51.716;14.324;2023-08-20T07:16:10;30.20;84.90
27940;DHT22;15275;51.716;14.324;2023-08-20T07:18:36;30.20;85.10
27940;DHT22;15275;51.716;14.324;2023-08-20T07:21:02;30.30;83.80
27940;DHT22;15275;51.716;14.324;2023-08-20T07:23:28;30.30;84.20
27940;DHT22;15275;51.716;14.324;2023-08-20T07:26:03;30.30;81.10
27940;DHT22;15275;51.716;14.324;2023-08-20T07:28:30;30.30;83.30
27940;DHT22;15275;51.716;14.324;2023-08-20T07:31:15;30.40;81.60
27940;DHT22;15275;51.716;14.324;2023-08-20T07:33:41;30.40;82.80
27940;DHT22;15275;51.716;14.324;2023-08-20T07:36:06;30.40;83.40
27940;DHT22;15275;51.716;14.324;2023-08-20T07:38:32;30.40;83.50
27940;DHT22;15275;51.716;14.324;2023-08-20T07:40:58;30.40;84.10
27940;DHT22;15275;51.716;14.324;2023-08-20T07:43:24;30.50;84.40
27940;DHT22;15275;51.716;14.324;2023-08-20T07:45:50;30.50;84.30
27940;DHT22;15275;51.716;14.324;2023-08-20T07:48:15;30.50;83.50
27940;DHT22;15275;51.716;14.324;2023-08-20T07:50:41;30.50;83.50
27940;DHT22;15275;51.716;14.324;2023-08-20T07:53:07;30.50;81.10
27940;DHT22;15275;51.716;14.324;2023-08-20T07:55:32;30.60;83.30
27940;DHT22;15275;51.716;14.324;2023-08-20T07:57:58;30.60;82.50
27940;DHT22;15275;51.716;14.324;2023-08-20T08:00:24;30.60;82.90
27940;DHT22;15275;51.716;14.324;2023-08-20T08:02:49;30.70;83.60
27940;DHT22;15275;51.716;14.324;2023-08-20T08:05:15;30.70;80.50
27940;DHT22;15275;51.716;14.324;2023-08-20T08:07:41;30.70;81.40
27940;DHT22;15275;51.716;14.324;2023-08-20T08:10:07;30.70;82.50
27940;DHT22;15275;51.716;14.324;2023-08-20T08:12:33;30.70;83.40
27940;DHT22;15275;51.716;14.324;2023-08-20T08:14:58;30.70;83.80
27940;DHT22;15275;51.716;14.324;2023-08-20T08:17:24;30.70;81.60
27940;DHT22;15275;51.716;14.324;2023-08-20T08:19:50;30.70;82.50
27940;DHT22;15275;51.716;14.324;2023-08-20T08:22:19;30.70;83.10
27940;DHT22;15275;51.716;14.324;2023-08-20T08:24:44;30.70;82.70
27940;DHT22;15275;51.716;14.324;2023-08-20T08:27:10;30.70;82.50
27940;DHT22;15275;51.716;14.324;2023-08-20T08:29:36;30.70;81.90
27940;DHT22;15275;51.716;14.324;2023-08-20T08:32:01;30.70;82.90
27940;DHT22;15275;51.716;14.324;2023-08-20T08:34:27;30.80;83.80
27940;DHT22;15275;51.716;14.324;2023-08-20T08:36:53;30.80;84.80
27940;DHT22;15275;51.716;14.324;2023-08-20T08:39:19;30.90;80.40
27940;DHT22;15275;51.716;14.324;2023-08-20T08:41:44;30.90;82.40
27940;DHT22;15275;51.716;14.324;2023-08-20T08:44:14;30.90;83.30
27940;DHT22;15275;51.716;14.324;2023-08-20T08:46:40;31.00;82.40
27940;DHT22;15275;51.716;14.324;2023-08-20T08:49:06;31.00;83.90
27940;DHT22;15275;51.716;14.324;2023-08-20T08:51:33;31.00;84.00
27940;DHT22;15275;51.716;14.324;2023-08-20T08:53:59;31.00;77.80
27940;DHT22;15275;51.716;14.324;2023-08-20T08:56:26;31.00;82.20
27940;DHT22;15275;51.716;14.324;2023-08-20T08:58:52;31.00;75.80
27940;DHT22;15275;51.716;14.324;2023-08-20T09:01:17;31.00;80.40
27940;DHT22;15275;51.716;14.324;2023-08-20T09:03:43;31.00;81.70
27940;DHT22;15275;51.716;14.324;2023-08-20T09:06:09;31.00;83.10
27940;DHT22;15275;51.716;14.324;2023-08-20T09:08:35;31.00;80.10
27940;DHT22;15275;51.716;14.324;2023-08-20T09:11:01;31.10;81.40
27940;DHT22;15275;51.716;14.324;2023-08-20T09:13:35;31.10;80.80
27940;DHT22;15275;51.716;14.324;2023-08-20T09:16:11;31.20;80.40
27940;DHT22;15275;51.716;14.324;2023-08-20T09:18:40;31.30;82.80
27940;DHT22;15275;51.716;14.324;2023-08-20T09:21:08;31.40;84.20
27940;DHT22;15275;51.716;14.324;2023-08-20T09:23:34;31.50;84.60
27940;DHT22;15275;51.716;14.324;2023-08-20T09:26:03;31.60;84.10
27940;DHT22;15275;51.716;14.324;2023-08-20T09:28:43;31.70;77.50
27940;DHT22;15275;51.716;14.324;2023-08-20T09:31:12;31.80;80.60
27940;DHT22;15275;51.716;14.324;2023-08-20T09:33:54;31.80;82.00
27940;DHT22;15275;51.716;14.324;2023-08-20T09:36:29;31.90;82.00
27940;DHT22;15275;51.716;14.324;2023-08-20T09:38:56;32.00;81.60
27940;DHT22;15275;51.716;14.324;2023-08-20T09:41:22;32.10;82.70
27940;DHT22;15275;51.716;14.324;2023-08-20T09:43:48;32.20;83.50
27940;DHT22;15275;51.716;14.324;2023-08-20T09:46:19;32.30;83.20
27940;DHT22;15275;51.716;14.324;2023-08-20T09:48:45;32.40;81.30
27940;DHT22;15275;51.716;14.324;2023-08-20T09:51:12;32.50;82.70
27940;DHT22;15275;51.716;14.324;2023-08-20T09:53:53;32.50;82.70
27940;DHT22;15275;51.716;14.324;2023-08-20T09:56:27;32.60;82.20
27940;DHT22;15275;51.716;14.324;2023-08-20T09:58:54;32.60;78.50
27940;DHT22;15275;51.716;14.324;2023-08-20T10:01:20;32.50;82.30
27940;DHT22;15275;51.716;14.324;2023-08-20T10:03:46;32.50;81.30
27940;DHT22;15275;51.716;14.324;2023-08-20T10:06:12;32.50;81.80
27940;DHT22;15275;51.716;14.324;2023-08-20T10:08:38;32.50;80.10
27940;DHT22;15275;51.716;14.324;2023-08-20T10:11:04;32.50;80.70
27940;DHT22;15275;51.716;14.324;2023-08-20T10:13:29;32.50;79.40
27940;DHT22;15275;51.716;14.324;2023-08-20T10:15:55;32.50;80.50
27940;DHT22;15275;51.716;14.324;2023-08-20T10:18:21;32.50;80.60
27940;DHT22;15275;51.716;14.324;2023-08-20T10:20:50;32.60;83.10
27940;DHT22;15275;51.716;14.324;2023-08-20T10:23:19;32.70;83.30
27940;DHT22;15275;51.716;14.324;2023-08-20T10:25:48;32.80;75.10
27940;DHT22;15275;51.716;14.324;2023-08-20T10:28:19;32.90;81.50
27940;DHT22;15275;51.716;14.324;2023-08-20T10:31:05;33.00;80.50
27940;DHT22;15275;51.716;14.324;2023-08-20T10:33:36;33.10;78.90
27940;DHT22;15275;51.716;14.324;2023-08-20T10:36:12;33.20;80.80
27940;DHT22;15275;51.716;14.324;2023-08-20T10:38:40;33.30;82.80
27940;DHT22;15275;51.716;14.324;2023-08-20T10:41:06;33.50;83.20
27940;DHT22;15275;51.716;14.324;2023-08-20T10:43:46;33.60;83.50
27940;DHT22;15275;51.716;14.324;2023-08-20T10:46:13;33.70;82.50
27940;DHT22;15275;51.716;14.324;2023-08-20T10:49:04;33.80;82.40
27940;DHT22;15275;51.716;14.324;2023-08-20T10:51:33;33.90;78.50
27940;DHT22;15275;51.716;14.324;2023-08-20T10:56:42;34.00;81.00
27940;DHT22;15275;51.716;14.324;2023-08-20T10:59:20;34.10;78.90
27940;DHT22;15275;51.716;14.324;2023-08-20T11:01:48;34.10;72.20
27940;DHT22;15275;51.716;14.324;2023-08-20T11:04:21;34.10;74.00
27940;DHT22;15275;51.716;14.324;2023-08-20T11:06:55;34.10;78.60
27940;DHT22;15275;51.716;14.324;2023-08-20T11:09:21;34.00;76.70
27940;DHT22;15275;51.716;14.324;2023-08-20T11:11:48;34.00;77.10
27940;DHT22;15275;51.716;14.324;2023-08-20T11:14:14;33.90;75.80
27940;DHT22;15275;51.716;14.324;2023-08-20T11:16:41;33.90;74.60
27940;DHT22;15275;51.716;14.324;2023-08-20T11:19:07;33.80;78.10
27940;DHT22;15275;51.716;14.324;2023-08-20T11:21:39;33.90;80.60
27940;DHT22;15275;51.716;14.324;2023-08-20T11:24:07;33.90;80.40
27940;DHT22;15275;51.716;14.324;2023-08-20T11:26:33;34.00;77.20
27940;DHT22;15275;51.716;14.324;2023-08-20T11:29:00;34.10;79.60
27940;DHT22;15275;51.716;14.324;2023-08-20T11:31:27;34.20;77.20
27940;DHT22;15275;51.716;14.324;2023-08-20T11:33:53;34.20;77.60
27940;DHT22;15275;51.716;14.324;2023-08-20T11:36:22;34.30;80.20
27940;DHT22;15275;51.716;14.324;2023-08-20T11:38:52;34.30;81.80
27940;DHT22;15275;51.716;14.324;2023-08-20T11:41:21;34.40;79.60
27940;DHT22;15275;51.716;14.324;2023-08-20T11:43:48;34.40;80.30
27940;DHT22;15275;51.716;14.324;2023-08-20T11:46:15;34.50;81.40
27940;DHT22;15275;51.716;14.324;2023-08-20T11:51:36;34.70;81.70
27940;DHT22;15275;51.716;14.324;2023-08-20T11:54:16;34.80;80.40
27940;DHT22;15275;51.716;14.324;2023-08-20T11:56:49;34.90;81.90
27940;DHT22;15275;51.716;14.324;2023-08-20T11:59:16;35.10;81.40
27940;DHT22;15275;51.716;14.324;2023-08-20T12:01:43;35.10;81.20
27940;DHT22;15275;51.716;14.324;2023-08-20T12:04:09;35.20;76.10
27940;DHT22;15275;51.716;14.324;2023-08-20T12:06:36;35.20;78.30
27940;DHT22;15275;51.716;14.324;2023-08-20T12:09:18;35.30;73.50
27940;DHT22;15275;51.716;14.324;2023-08-20T12:11:51;35.20;73.50
27940;DHT22;15275;51.716;14.324;2023-08-20T12:14:18;35.20;77.20
27940;DHT22;15275;51.716;14.324;2023-08-20T12:16:44;35.20;77.90
27940;DHT22;15275;51.716;14.324;2023-08-20T12:19:10;35.20;79.00
27940;DHT22;15275;51.716;14.324;2023-08-20T12:21:35;35.10;77.30
27940;DHT22;15275;51.716;14.324;2023-08-20T12:24:01;35.10;78.60
27940;DHT22;15275;51.716;14.324;2023-08-20T12:26:26;35.00;80.60
27940;DHT22;15275;51.716;14.324;2023-08-20T12:28:53;34.90;81.90
27940;DHT22;15275;51.716;14.324;2023-08-20T12:31:20;34.90;79.70
27940;DHT22;15275;51.716;14.324;2023-08-20T12:33:45;34.90;79.00
27940;DHT22;15275;51.716;14.324;2023-08-20T12:36:11;34.90;80.40
27940;DHT22;15275;51.716;14.324;2023-08-20T12:38:37;35.00;74.50
27940;DHT22;15275;51.716;14.324;2023-08-20T12:41:02;35.00;79.00
27940;DHT22;15275;51.716;14.324;2023-08-20T12:43:30;35.00;77.20
27940;DHT22;15275;51.716;14.324;2023-08-20T12:45:56;35.00;76.10
27940;DHT22;15275;51.716;14.324;2023-08-20T12:48:22;35.10;79.10
27940;DHT22;15275;51.716;14.324;2023-08-20T12:50:47;35.10;74.80
27940;DHT22;15275;51.716;14.324;2023-08-20T12:53:13;35.10;77.00
27940;DHT22;15275;51.716;14.324;2023-08-20T12:55:39;35.10;76.70
27940;DHT22;15275;51.716;14.324;2023-08-20T12:58:04;35.10;79.60
27940;DHT22;15275;51.716;14.324;2023-08-20T13:00:30;35.10;79.40
27940;DHT22;15275;51.716;14.324;2023-08-20T13:02:56;35.20;80.10
27940;DHT22;15275;51.716;14.324;2023-08-20T13:05:23;35.20;79.50
27940;DHT22;15275;51.716;14.324;2023-08-20T13:07:49;35.20;77.20
27940;DHT22;15275;51.716;14.324;2023-08-20T13:10:15;35.20;78.80
27940;DHT22;15275;51.716;14.324;2023-08-20T13:12:42;35.30;75.90
27940;DHT22;15275;51.716;14.324;2023-08-20T13:15:16;35.30;77.90
27940;DHT22;15275;51.716;14.324;2023-08-20T13:17:43;35.20;76.50
27940;DHT22;15275;51.716;14.324;2023-08-20T13:20:10;35.20;74.70
27940;DHT22;15275;51.716;14.324;2023-08-20T13:22:36;35.20;77.20
27940;DHT22;15275;51.716;14.324;2023-08-20T13:25:02;35.20;76.10
27940;DHT22;15275;51.716;14.324;2023-08-20T13:27:29;35.30;76.60
27940;DHT22;15275;51.716;14.324;2023-08-20T13:29:56;35.30;77.10
27940;DHT22;15275;51.716;14.324;2023-08-20T13:32:22;35.30;75.40
27940;DHT22;15275;51.716;14.324;2023-08-20T13:34:49;35.40;76.90
27940;DHT22;15275;51.716;14.324;2023-08-20T13:37:15;35.40;74.70
27940;DHT22;15275;51.716;14.324;2023-08-20T13:39:41;35.40;70.90
27940;DHT22;15275;51.716;14.324;2023-08-20T13:42:06;35.50;72.20
27940;DHT22;15275;51.716;14.324;2023-08-20T13:44:32;35.40;75.70
27940;DHT22;15275;51.716;14.324;2023-08-20T13:46:58;35.30;69.50
27940;DHT22;15275;51.716;14.324;2023-08-20T13:49:24;35.30;75.00
27940;DHT22;15275;51.716;14.324;2023-08-20T13:51:50;35.20;73.00
27940;DHT22;15275;51.716;14.324;2023-08-20T13:54:16;35.20;73.60
27940;DHT22;15275;51.716;14.324;2023-08-20T13:56:41;35.20;75.90
27940;DHT22;15275;51.716;14.324;2023-08-20T13:59:09;35.20;72.30
27940;DHT22;15275;51.716;14.324;2023-08-20T14:01:35;35.20;75.50
27940;DHT22;15275;51.716;14.324;2023-08-20T14:04:01;35.30;68.60
27940;DHT22;15275;51.716;14.324;2023-08-20T14:06:28;35.30;74.60
27940;DHT22;15275;51.716;14.324;2023-08-20T14:08:54;35.30;75.70
27940;DHT22;15275;51.716;14.324;2023-08-20T14:11:20;35.40;72.70
27940;DHT22;15275;51.716;14.324;2023-08-20T14:13:46;35.40;75.30
27940;DHT22;15275;51.716;14.324;2023-08-20T14:16:12;35.40;67.80
27940;DHT22;15275;51.716;14.324;2023-08-20T14:18:38;35.40;69.00
27940;DHT22;15275;51.716;14.324;2023-08-20T14:21:04;35.50;74.80
27940;DHT22;15275;51.716;14.324;2023-08-20T14:23:30;35.50;77.30
27940;DHT22;15275;51.716;14.324;2023-08-20T14:25:55;35.50;74.70
27940;DHT22;15275;51.716;14.324;2023-08-20T14:28:21;35.60;73.20
27940;DHT22;15275;51.716;14.324;2023-08-20T14:30:47;35.60;73.90
27940;DHT22;15275;51.716;14.324;2023-08-20T14:33:14;35.60;75.20
27940;DHT22;15275;51.716;14.324;2023-08-20T14:35:40;35.60;75.70
27940;DHT22;15275;51.716;14.324;2023-08-20T14:38:06;35.60;72.90
27940;DHT22;15275;51.716;14.324;2023-08-20T14:40:36;35.60;71.60
27940;DHT22;15275;51.716;14.324;2023-08-20T14:43:08;35.60;69.90
27940;DHT22;15275;51.716;14.324;2023-08-20T14:45:34;35.60;64.10
27940;DHT22;15275;51.716;14.324;2023-08-20T14:48:00;35.60;74.80
27940;DHT22;15275;51.716;14.324;2023-08-20T14:50:25;35.60;74.80
27940;DHT22;15275;51.716;14.324;2023-08-20T14:52:51;35.60;72.40
27940;DHT22;15275;51.716;14.324;2023-08-20T14:55:18;35.60;71.80
27940;DHT22;15275;51.716;14.324;2023-08-20T14:57:44;35.60;72.00
27940;DHT22;15275;51.716;14.324;2023-08-20T15:00:10;35.60;67.00
27940;DHT22;15275;51.716;14.324;2023-08-20T15:02:45;35.60;70.70
27940;DHT22;15275;51.716;14.324;2023-08-20T15:05:12;35.60;73.40
27940;DHT22;15275;51.716;14.324;2023-08-20T15:07:38;35.60;70.30
27940;DHT22;15275;51.716;14.324;2023-08-20T15:10:04;35.70;75.10
27940;DHT22;15275;51.716;14.324;2023-08-20T15:12:33;35.70;73.60
27940;DHT22;15275;51.716;14.324;2023-08-20T15:14:59;35.70;72.70
27940;DHT22;15275;51.716;14.324;2023-08-20T15:17:26;35.70;70.60
27940;DHT22;15275;51.716;14.324;2023-08-20T15:19:52;35.70;74.50
27940;DHT22;15275;51.716;14.324;2023-08-20T15:22:18;35.70;72.30
27940;DHT22;15275;51.716;14.324;2023-08-20T15:24:44;35.70;73.50
27940;DHT22;15275;51.716;14.324;2023-08-20T15:27:09;35.70;69.60